sensor_id;sensor_type;location;lat;lon;timestamp;P1;P2;P0
73973;PMS5003;62336;-26.094;27.994;2023-03-12T00:00:08;4;4;
73973;PMS5003;62336;-26.094;27.994;2023-03-12T00:02:34;4;4;
73973;PMS5003;62336;-26.094;27.994;2023-03-12T00:05:00;4;4;
73973;PMS5003;62336;-26.094;27.994;2023-03-12T00:07:26;2;2;
73973;PMS5003;62336;-26.094;27.994;2023-03-12T00:09:51;4;4;
73973;PMS5003;62336;-26.094;27.994;2023-03-12T00:12:17;4;4;
73973;PMS5003;62336;-26.094;27.994;2023-03-12T00:14:43;4;4;
73973;PMS5003;62336;-26.094;27.994;2023-03-12T00:17:08;5;5;
73973;PMS5003;62336;-26.094;27.994;2023-03-12T00:19:34;5;4;
73973;PMS5003;62336;-26.094;27.994;2023-03-12T00:22:00;4;4;
73973;PMS5003;62336;-26.094;27.994;2023-03-12T00:24:26;4;3;
73973;PMS5003;62336;-26.094;27.994;2023-03-12T00:26:52;6;5;
73973;PMS5003;62336;-26.094;27.994;2023-03-12T00:29:16;4;4;
73973;PMS5003;62336;-26.094;27.994;2023-03-12T00:31:42;5;5;
73973;PMS5003;62336;-26.094;27.994;2023-03-12T00:34:08;3;3;
73973;PMS5003;62336;-26.094;27.994;2023-03-12T00:36:34;6;5;
73973;PMS5003;62336;-26.094;27.994;2023-03-12T00:39:00;4;4;
73973;PMS5003;62336;-26.094;27.994;2023-03-12T00:41:26;4;3;
73973;PMS5003;62336;-26.094;27.994;2023-03-12T00:43:52;4;4;
73973;PMS5003;62336;-26.094;27.994;2023-03-12T00:46:18;4;4;
73973;PMS5003;62336;-26.094;27.994;2023-03-12T00:48:43;5;4;
73973;PMS5003;62336;-26.094;27.994;2023-03-12T00:51:10;3;2;
73973;PMS5003;62336;-26.094;27.994;2023-03-12T00:53:35;5;5;
73973;PMS5003;62336;-26.094;27.994;2023-03-12T00:56:01;5;5;
73973;PMS5003;62336;-26.094;27.994;2023-03-12T00:58:27;5;5;
73973;PMS5003;62336;-26.094;27.994;2023-03-12T01:00:52;3;3;
73973;PMS5003;62336;-26.094;27.994;2023-03-12T01:03:18;5;5;
73973;PMS5003;62336;-26.094;27.994;2023-03-12T01:05:44;7;6;
73973;PMS5003;62336;-26.094;27.994;2023-03-12T01:08:10;5;4;
73973;PMS5003;62336;-26.094;27.994;2023-03-12T01:10:36;5;5;
73973;PMS5003;62336;-26.094;27.994;2023-03-12T01:13:02;4;4;
73973;PMS5003;62336;-26.094;27.994;2023-03-12T01:15:28;8;7;
73973;PMS5003;62336;-26.094;27.994;2023-03-12T01:17:53;5;5;
73973;PMS5003;62336;-26.094;27.994;2023-03-12T01:20:19;5;5;
73973;PMS5003;62336;-26.094;27.994;2023-03-12T01:22:45;5;5;
73973;PMS5003;62336;-26.094;27.994;2023-03-12T01:25:11;9;7;
73973;PMS5003;62336;-26.094;27.994;2023-03-12T01:27:37;5;5;
73973;PMS5003;62336;-26.094;27.994;2023-03-12T01:30:03;8;7;
73973;PMS5003;62336;-26.094;27.994;2023-03-12T01:32:28;7;6;
73973;PMS5003;62336;-26.094;27.994;2023-03-12T01:34:54;7;7;
73973;PMS5003;62336;-26.094;27.994;2023-03-12T01:37:20;8;6;
73973;PMS5003;62336;-26.094;27.994;2023-03-12T01:39:46;10;8;
73973;PMS5003;62336;-26.094;27.994;2023-03-12T01:42:12;10;8;
73973;PMS5003;62336;-26.094;27.994;2023-03-12T01:47:03;6;6;
73973;PMS5003;62336;-26.094;27.994;2023-03-12T01:49:33;6;6;
73973;PMS5003;62336;-26.094;27.994;2023-03-12T01:52:00;6;6;
73973;PMS5003;62336;-26.094;27.994;2023-03-12T01:54:22;7;7;
73973;PMS5003;62336;-26.094;27.994;2023-03-12T01:56:46;9;7;
73973;PMS5003;62336;-26.094;27.994;2023-03-12T01:59:13;7;6;
73973;PMS5003;62336;-26.094;27.994;2023-03-12T02:01:37;6;5;
73973;PMS5003;62336;-26.094;27.994;2023-03-12T02:04:03;6;6;
73973;PMS5003;62336;-26.094;27.994;2023-03-12T02:06:32;5;4;
73973;PMS5003;62336;-26.094;27.994;2023-03-12T02:08:54;7;7;
73973;PMS5003;62336;-26.094;27.994;2023-03-12T02:11:21;7;7;
73973;PMS5003;62336;-26.094;27.994;2023-03-12T02:13:46;7;7;
73973;PMS5003;62336;-26.094;27.994;2023-03-12T02:16:12;7;7;
73973;PMS5003;62336;-26.094;27.994;2023-03-12T02:18:38;6;6;
73973;PMS5003;62336;-26.094;27.994;2023-03-12T02:21:04;8;8;
73973;PMS5003;62336;-26.094;27.994;2023-03-12T02:23:29;7;7;
73973;PMS5003;62336;-26.094;27.994;2023-03-12T02:25:54;8;8;
73973;PMS5003;62336;-26.094;27.994;2023-03-12T02:28:20;7;7;
73973;PMS5003;62336;-26.094;27.994;2023-03-12T02:30:45;6;5;
73973;PMS5003;62336;-26.094;27.994;2023-03-12T02:33:11;5;5;
73973;PMS5003;62336;-26.094;27.994;2023-03-12T02:35:36;6;6;
73973;PMS5003;62336;-26.094;27.994;2023-03-12T02:38:02;7;7;
73973;PMS5003;62336;-26.094;27.994;2023-03-12T02:40:30;6;6;
73973;PMS5003;62336;-26.094;27.994;2023-03-12T02:42:52;6;6;
73973;PMS5003;62336;-26.094;27.994;2023-03-12T02:45:18;8;7;
73973;PMS5003;62336;-26.094;27.994;2023-03-12T02:47:44;9;9;
73973;PMS5003;62336;-26.094;27.994;2023-03-12T02:50:10;7;7;
73973;PMS5003;62336;-26.094;27.994;2023-03-12T02:52:35;9;8;
73973;PMS5003;62336;-26.094;27.994;2023-03-12T02:55:01;9;9;
73973;PMS5003;62336;-26.094;27.994;2023-03-12T02:57:27;10;9;
73973;PMS5003;62336;-26.094;27.994;2023-03-12T02:59:53;12;11;
73973;PMS5003;62336;-26.094;27.994;2023-03-12T03:02:18;9;9;
73973;PMS5003;62336;-26.094;27.994;2023-03-12T03:04:43;8;8;
73973;PMS5003;62336;-26.094;27.994;2023-03-12T03:07:08;11;11;
73973;PMS5003;62336;-26.094;27.994;2023-03-12T03:09:34;12;11;
73973;PMS5003;62336;-26.094;27.994;2023-03-12T03:11:59;12;11;
73973;PMS5003;62336;-26.094;27.994;2023-03-12T03:14:24;15;13;
73973;PMS5003;62336;-26.094;27.994;2023-03-12T03:16:49;9;9;
73973;PMS5003;62336;-26.094;27.994;2023-03-12T03:19:15;9;9;
73973;PMS5003;62336;-26.094;27.994;2023-03-12T03:21:41;8;8;
73973;PMS5003;62336;-26.094;27.994;2023-03-12T03:24:06;9;9;
73973;PMS5003;62336;-26.094;27.994;2023-03-12T03:26:31;11;11;
73973;PMS5003;62336;-26.094;27.994;2023-03-12T03:28:56;9;9;
73973;PMS5003;62336;-26.094;27.994;2023-03-12T03:31:23;9;9;
73973;PMS5003;62336;-26.094;27.994;2023-03-12T03:33:48;8;8;
73973;PMS5003;62336;-26.094;27.994;2023-03-12T03:36:14;8;8;
73973;PMS5003;62336;-26.094;27.994;2023-03-12T03:38:40;9;8;
73973;PMS5003;62336;-26.094;27.994;2023-03-12T03:41:05;7;7;
73973;PMS5003;62336;-26.094;27.994;2023-03-12T03:43:31;9;9;
73973;PMS5003;62336;-26.094;27.994;2023-03-12T03:45:57;7;7;
73973;PMS5003;62336;-26.094;27.994;2023-03-12T03:48:23;6;6;
73973;PMS5003;62336;-26.094;27.994;2023-03-12T03:50:49;8;8;
73973;PMS5003;62336;-26.094;27.994;2023-03-12T03:53:14;9;8;
73973;PMS5003;62336;-26.094;27.994;2023-03-12T03:55:40;8;8;
73973;PMS5003;62336;-26.094;27.994;2023-03-12T03:58:06;8;8;
73973;PMS5003;62336;-26.094;27.994;2023-03-12T04:00:32;7;7;
73973;PMS5003;62336;-26.094;27.994;2023-03-12T04:02:57;9;9;
73973;PMS5003;62336;-26.094;27.994;2023-03-12T04:05:22;7;7;
73973;PMS5003;62336;-26.094;27.994;2023-03-12T04:07:48;6;6;
73973;PMS5003;62336;-26.094;27.994;2023-03-12T04:10:14;6;6;
73973;PMS5003;62336;-26.094;27.994;2023-03-12T04:12:39;8;7;
73973;PMS5003;62336;-26.094;27.994;2023-03-12T04:15:05;6;6;
73973;PMS5003;62336;-26.094;27.994;2023-03-12T04:17:31;8;8;
73973;PMS5003;62336;-26.094;27.994;2023-03-12T04:19:56;11;10;
73973;PMS5003;62336;-26.094;27.994;2023-03-12T04:22:22;8;8;
73973;PMS5003;62336;-26.094;27.994;2023-03-12T04:24:48;12;12;
73973;PMS5003;62336;-26.094;27.994;2023-03-12T04:27:13;10;10;
73973;PMS5003;62336;-26.094;27.994;2023-03-12T04:29:38;10;10;
73973;PMS5003;62336;-26.094;27.994;2023-03-12T04:32:04;11;11;
73973;PMS5003;62336;-26.094;27.994;2023-03-12T04:34:30;11;11;
73973;PMS5003;62336;-26.094;27.994;2023-03-12T04:36:56;11;11;
73973;PMS5003;62336;-26.094;27.994;2023-03-12T04:39:20;12;12;
73973;PMS5003;62336;-26.094;27.994;2023-03-12T04:41:45;11;11;
73973;PMS5003;62336;-26.094;27.994;2023-03-12T04:44:10;12;11;
73973;PMS5003;62336;-26.094;27.994;2023-03-12T04:46:36;11;11;
73973;PMS5003;62336;-26.094;27.994;2023-03-12T04:49:02;10;9;
73973;PMS5003;62336;-26.094;27.994;2023-03-12T04:51:28;10;10;
73973;PMS5003;62336;-26.094;27.994;2023-03-12T04:53:53;9;9;
73973;PMS5003;62336;-26.094;27.994;2023-03-12T04:56:19;8;8;
73973;PMS5003;62336;-26.094;27.994;2023-03-12T04:58:45;12;12;
73973;PMS5003;62336;-26.094;27.994;2023-03-12T05:01:13;10;9;
73973;PMS5003;62336;-26.094;27.994;2023-03-12T05:03:36;9;9;
73973;PMS5003;62336;-26.094;27.994;2023-03-12T05:06:01;10;10;
73973;PMS5003;62336;-26.094;27.994;2023-03-12T05:08:26;9;8;
73973;PMS5003;62336;-26.094;27.994;2023-03-12T05:10:51;7;7;
73973;PMS5003;62336;-26.094;27.994;2023-03-12T05:13:18;10;9;
73973;PMS5003;62336;-26.094;27.994;2023-03-12T05:15:43;8;8;
73973;PMS5003;62336;-26.094;27.994;2023-03-12T05:18:07;7;7;
73973;PMS5003;62336;-26.094;27.994;2023-03-12T05:20:33;8;7;
73973;PMS5003;62336;-26.094;27.994;2023-03-12T05:22:58;7;7;
73973;PMS5003;62336;-26.094;27.994;2023-03-12T05:25:24;9;8;
73973;PMS5003;62336;-26.094;27.994;2023-03-12T05:27:50;9;9;
73973;PMS5003;62336;-26.094;27.994;2023-03-12T05:30:15;53;38;
73973;PMS5003;62336;-26.094;27.994;2023-03-12T05:32:41;14;12;
73973;PMS5003;62336;-26.094;27.994;2023-03-12T05:35:06;11;11;
73973;PMS5003;62336;-26.094;27.994;2023-03-12T05:37:32;7;7;
73973;PMS5003;62336;-26.094;27.994;2023-03-12T05:39:58;13;8;
73973;PMS5003;62336;-26.094;27.994;2023-03-12T05:42:24;8;8;
73973;PMS5003;62336;-26.094;27.994;2023-03-12T05:44:48;10;9;
73973;PMS5003;62336;-26.094;27.994;2023-03-12T05:47:13;14;14;
73973;PMS5003;62336;-26.094;27.994;2023-03-12T05:49:39;12;11;
73973;PMS5003;62336;-26.094;27.994;2023-03-12T05:52:05;14;14;
73973;PMS5003;62336;-26.094;27.994;2023-03-12T05:54:31;11;11;
73973;PMS5003;62336;-26.094;27.994;2023-03-12T05:56:56;16;16;
73973;PMS5003;62336;-26.094;27.994;2023-03-12T05:59:21;10;10;
73973;PMS5003;62336;-26.094;27.994;2023-03-12T06:01:47;13;13;
73973;PMS5003;62336;-26.094;27.994;2023-03-12T06:04:13;13;13;
73973;PMS5003;62336;-26.094;27.994;2023-03-12T06:06:38;11;11;
73973;PMS5003;62336;-26.094;27.994;2023-03-12T06:09:04;14;14;
73973;PMS5003;62336;-26.094;27.994;2023-03-12T06:11:30;16;15;
73973;PMS5003;62336;-26.094;27.994;2023-03-12T06:13:55;14;13;
73973;PMS5003;62336;-26.094;27.994;2023-03-12T06:16:20;15;14;
73973;PMS5003;62336;-26.094;27.994;2023-03-12T06:18:45;13;11;
73973;PMS5003;62336;-26.094;27.994;2023-03-12T06:21:10;17;15;
73973;PMS5003;62336;-26.094;27.994;2023-03-12T06:23:35;14;13;
73973;PMS5003;62336;-26.094;27.994;2023-03-12T06:26:01;14;14;
73973;PMS5003;62336;-26.094;27.994;2023-03-12T06:28:27;14;14;
73973;PMS5003;62336;-26.094;27.994;2023-03-12T06:30:52;17;15;
73973;PMS5003;62336;-26.094;27.994;2023-03-12T06:33:18;15;15;
73973;PMS5003;62336;-26.094;27.994;2023-03-12T06:35:43;15;15;
73973;PMS5003;62336;-26.094;27.994;2023-03-12T06:38:09;17;16;
73973;PMS5003;62336;-26.094;27.994;2023-03-12T06:40:35;16;14;
73973;PMS5003;62336;-26.094;27.994;2023-03-12T06:43:00;15;15;
73973;PMS5003;62336;-26.094;27.994;2023-03-12T06:45:26;16;15;
73973;PMS5003;62336;-26.094;27.994;2023-03-12T06:47:52;14;13;
73973;PMS5003;62336;-26.094;27.994;2023-03-12T06:50:16;13;13;
73973;PMS5003;62336;-26.094;27.994;2023-03-12T06:52:41;16;15;
73973;PMS5003;62336;-26.094;27.994;2023-03-12T06:55:07;15;14;
73973;PMS5003;62336;-26.094;27.994;2023-03-12T06:57:32;18;15;
73973;PMS5003;62336;-26.094;27.994;2023-03-12T06:59:57;15;15;
73973;PMS5003;62336;-26.094;27.994;2023-03-12T07:02:23;14;14;
73973;PMS5003;62336;-26.094;27.994;2023-03-12T07:04:48;15;15;
73973;PMS5003;62336;-26.094;27.994;2023-03-12T07:07:13;12;12;
73973;PMS5003;62336;-26.094;27.994;2023-03-12T07:09:38;16;15;
73973;PMS5003;62336;-26.094;27.994;2023-03-12T07:12:04;15;15;
73973;PMS5003;62336;-26.094;27.994;2023-03-12T07:14:29;14;14;
73973;PMS5003;62336;-26.094;27.994;2023-03-12T07:16:55;16;16;
73973;PMS5003;62336;-26.094;27.994;2023-03-12T07:19:19;17;15;
73973;PMS5003;62336;-26.094;27.994;2023-03-12T07:21:45;18;17;
73973;PMS5003;62336;-26.094;27.994;2023-03-12T07:24:10;15;14;
73973;PMS5003;62336;-26.094;27.994;2023-03-12T07:26:35;12;12;
73973;PMS5003;62336;-26.094;27.994;2023-03-12T07:29:00;15;13;
73973;PMS5003;62336;-26.094;27.994;2023-03-12T07:31:25;14;13;
73973;PMS5003;62336;-26.094;27.994;2023-03-12T07:33:50;14;14;
73973;PMS5003;62336;-26.094;27.994;2023-03-12T07:36:16;14;12;
73973;PMS5003;62336;-26.094;27.994;2023-03-12T07:38:41;12;12;
73973;PMS5003;62336;-26.094;27.994;2023-03-12T07:41:06;15;13;
73973;PMS5003;62336;-26.094;27.994;2023-03-12T07:43:32;16;14;
73973;PMS5003;62336;-26.094;27.994;2023-03-12T07:45:57;14;12;
73973;PMS5003;62336;-26.094;27.994;2023-03-12T07:48:22;15;14;
73973;PMS5003;62336;-26.094;27.994;2023-03-12T07:50:47;16;15;
73973;PMS5003;62336;-26.094;27.994;2023-03-12T07:53:12;12;12;
73973;PMS5003;62336;-26.094;27.994;2023-03-12T07:55:37;15;14;
73973;PMS5003;62336;-26.094;27.994;2023-03-12T07:58:03;16;15;
73973;PMS5003;62336;-26.094;27.994;2023-03-12T08:00:29;11;11;
73973;PMS5003;62336;-26.094;27.994;2023-03-12T08:02:54;12;12;
73973;PMS5003;62336;-26.094;27.994;2023-03-12T08:05:20;12;12;
73973;PMS5003;62336;-26.094;27.994;2023-03-12T08:07:45;13;12;
73973;PMS5003;62336;-26.094;27.994;2023-03-12T08:10:10;14;14;
73973;PMS5003;62336;-26.094;27.994;2023-03-12T08:12:35;12;12;
73973;PMS5003;62336;-26.094;27.994;2023-03-12T08:15:01;14;13;
73973;PMS5003;62336;-26.094;27.994;2023-03-12T08:17:25;11;9;
73973;PMS5003;62336;-26.094;27.994;2023-03-12T08:19:50;12;11;
73973;PMS5003;62336;-26.094;27.994;2023-03-12T08:22:16;12;11;
73973;PMS5003;62336;-26.094;27.994;2023-03-12T08:24:41;17;16;
73973;PMS5003;62336;-26.094;27.994;2023-03-12T08:27:06;11;10;
73973;PMS5003;62336;-26.094;27.994;2023-03-12T08:29:32;14;12;
73973;PMS5003;62336;-26.094;27.994;2023-03-12T08:31:58;11;11;
73973;PMS5003;62336;-26.094;27.994;2023-03-12T08:34:23;15;15;
73973;PMS5003;62336;-26.094;27.994;2023-03-12T08:36:48;15;15;
73973;PMS5003;62336;-26.094;27.994;2023-03-12T08:39:13;14;14;
73973;PMS5003;62336;-26.094;27.994;2023-03-12T08:41:39;12;11;
73973;PMS5003;62336;-26.094;27.994;2023-03-12T08:44:04;13;12;
73973;PMS5003;62336;-26.094;27.994;2023-03-12T08:46:29;14;13;
73973;PMS5003;62336;-26.094;27.994;2023-03-12T08:48:55;14;12;
73973;PMS5003;62336;-26.094;27.994;2023-03-12T08:51:20;12;12;
73973;PMS5003;62336;-26.094;27.994;2023-03-12T08:53:46;16;14;
73973;PMS5003;62336;-26.094;27.994;2023-03-12T08:56:11;13;12;
73973;PMS5003;62336;-26.094;27.994;2023-03-12T08:58:36;16;15;
73973;PMS5003;62336;-26.094;27.994;2023-03-12T09:01:06;13;13;
73973;PMS5003;62336;-26.094;27.994;2023-03-12T09:03:27;14;13;
73973;PMS5003;62336;-26.094;27.994;2023-03-12T09:08:18;11;11;
73973;PMS5003;62336;-26.094;27.994;2023-03-12T09:10:46;11;11;
73973;PMS5003;62336;-26.094;27.994;2023-03-12T09:13:08;10;10;
73973;PMS5003;62336;-26.094;27.994;2023-03-12T09:15:33;15;13;
73973;PMS5003;62336;-26.094;27.994;2023-03-12T09:17:59;13;11;
73973;PMS5003;62336;-26.094;27.994;2023-03-12T09:20:24;13;12;
73973;PMS5003;62336;-26.094;27.994;2023-03-12T09:22:49;14;13;
73973;PMS5003;62336;-26.094;27.994;2023-03-12T09:25:14;11;11;
73973;PMS5003;62336;-26.094;27.994;2023-03-12T09:27:40;14;12;
73973;PMS5003;62336;-26.094;27.994;2023-03-12T09:30:05;11;11;
73973;PMS5003;62336;-26.094;27.994;2023-03-12T09:32:29;15;14;
73973;PMS5003;62336;-26.094;27.994;2023-03-12T09:34:54;13;12;
73973;PMS5003;62336;-26.094;27.994;2023-03-12T09:37:20;11;11;
73973;PMS5003;62336;-26.094;27.994;2023-03-12T09:39:47;12;12;
73973;PMS5003;62336;-26.094;27.994;2023-03-12T09:42:14;9;9;
73973;PMS5003;62336;-26.094;27.994;2023-03-12T09:44:38;10;10;
73973;PMS5003;62336;-26.094;27.994;2023-03-12T09:47:02;10;10;
73973;PMS5003;62336;-26.094;27.994;2023-03-12T09:49:29;12;12;
73973;PMS5003;62336;-26.094;27.994;2023-03-12T09:51:53;9;9;
73973;PMS5003;62336;-26.094;27.994;2023-03-12T09:54:20;10;10;
73973;PMS5003;62336;-26.094;27.994;2023-03-12T09:56:43;12;11;
73973;PMS5003;62336;-26.094;27.994;2023-03-12T09:59:09;11;9;
73973;PMS5003;62336;-26.094;27.994;2023-03-12T10:01:35;12;11;
73973;PMS5003;62336;-26.094;27.994;2023-03-12T10:04:01;10;9;
73973;PMS5003;62336;-26.094;27.994;2023-03-12T10:06:23;9;9;
73973;PMS5003;62336;-26.094;27.994;2023-03-12T10:08:52;10;10;
73973;PMS5003;62336;-26.094;27.994;2023-03-12T10:11:15;13;12;
73973;PMS5003;62336;-26.094;27.994;2023-03-12T10:13:42;10;10;
73973;PMS5003;62336;-26.094;27.994;2023-03-12T10:16:07;12;11;
73973;PMS5003;62336;-26.094;27.994;2023-03-12T10:18:32;12;11;
73973;PMS5003;62336;-26.094;27.994;2023-03-12T10:20:59;11;10;
73973;PMS5003;62336;-26.094;27.994;2023-03-12T10:23:23;9;8;
73973;PMS5003;62336;-26.094;27.994;2023-03-12T10:25:47;11;9;
73973;PMS5003;62336;-26.094;27.994;2023-03-12T10:28:12;10;9;
73973;PMS5003;62336;-26.094;27.994;2023-03-12T10:30:36;8;8;
73973;PMS5003;62336;-26.094;27.994;2023-03-12T10:33:02;9;9;
73973;PMS5003;62336;-26.094;27.994;2023-03-12T10:35:27;9;9;
73973;PMS5003;62336;-26.094;27.994;2023-03-12T10:37:52;11;10;
73973;PMS5003;62336;-26.094;27.994;2023-03-12T10:40:18;11;11;
73973;PMS5003;62336;-26.094;27.994;2023-03-12T10:42:42;8;7;
73973;PMS5003;62336;-26.094;27.994;2023-03-12T10:45:13;10;9;
73973;PMS5003;62336;-26.094;27.994;2023-03-12T10:47:34;8;8;
73973;PMS5003;62336;-26.094;27.994;2023-03-12T10:50:10;8;8;
73973;PMS5003;62336;-26.094;27.994;2023-03-12T10:52:23;9;8;
73973;PMS5003;62336;-26.094;27.994;2023-03-12T10:54:48;10;10;
73973;PMS5003;62336;-26.094;27.994;2023-03-12T10:57:13;12;11;
73973;PMS5003;62336;-26.094;27.994;2023-03-12T10:59:39;13;12;
73973;PMS5003;62336;-26.094;27.994;2023-03-12T11:04:29;8;8;
73973;PMS5003;62336;-26.094;27.994;2023-03-12T11:07:03;10;9;
73973;PMS5003;62336;-26.094;27.994;2023-03-12T11:09:18;8;8;
73973;PMS5003;62336;-26.094;27.994;2023-03-12T11:11:44;11;10;
73973;PMS5003;62336;-26.094;27.994;2023-03-12T11:16:35;7;7;
73973;PMS5003;62336;-26.094;27.994;2023-03-12T11:19:01;12;11;
73973;PMS5003;62336;-26.094;27.994;2023-03-12T11:21:26;10;10;
73973;PMS5003;62336;-26.094;27.994;2023-03-12T11:26:17;8;8;
73973;PMS5003;62336;-26.094;27.994;2023-03-12T11:28:42;10;9;
73973;PMS5003;62336;-26.094;27.994;2023-03-12T11:31:07;8;8;
73973;PMS5003;62336;-26.094;27.994;2023-03-12T11:33:32;10;10;
73973;PMS5003;62336;-26.094;27.994;2023-03-12T11:36:03;11;10;
73973;PMS5003;62336;-26.094;27.994;2023-03-12T11:38:24;9;9;
73973;PMS5003;62336;-26.094;27.994;2023-03-12T11:40:51;9;9;
73973;PMS5003;62336;-26.094;27.994;2023-03-12T11:43:17;11;9;
73973;PMS5003;62336;-26.094;27.994;2023-03-12T11:45:40;10;9;
73973;PMS5003;62336;-26.094;27.994;2023-03-12T11:48:06;10;9;
73973;PMS5003;62336;-26.094;27.994;2023-03-12T11:50:31;9;8;
73973;PMS5003;62336;-26.094;27.994;2023-03-12T11:52:58;10;10;
73973;PMS5003;62336;-26.094;27.994;2023-03-12T11:55:21;13;10;
73973;PMS5003;62336;-26.094;27.994;2023-03-12T11:57:46;10;10;
73973;PMS5003;62336;-26.094;27.994;2023-03-12T12:00:10;8;7;
73973;PMS5003;62336;-26.094;27.994;2023-03-12T12:02:37;9;8;
73973;PMS5003;62336;-26.094;27.994;2023-03-12T12:05:07;10;10;
73973;PMS5003;62336;-26.094;27.994;2023-03-12T12:07:26;8;7;
73973;PMS5003;62336;-26.094;27.994;2023-03-12T12:09:49;10;9;
73973;PMS5003;62336;-26.094;27.994;2023-03-12T12:12:18;9;9;
73973;PMS5003;62336;-26.094;27.994;2023-03-12T12:14:42;10;8;
73973;PMS5003;62336;-26.094;27.994;2023-03-12T12:17:07;12;12;
73973;PMS5003;62336;-26.094;27.994;2023-03-12T12:19:34;10;9;
73973;PMS5003;62336;-26.094;27.994;2023-03-12T12:21:59;8;8;
73973;PMS5003;62336;-26.094;27.994;2023-03-12T12:24:24;13;11;
73973;PMS5003;62336;-26.094;27.994;2023-03-12T12:26:47;11;11;
73973;PMS5003;62336;-26.094;27.994;2023-03-12T12:29:17;12;11;
73973;PMS5003;62336;-26.094;27.994;2023-03-12T12:31:36;12;11;
73973;PMS5003;62336;-26.094;27.994;2023-03-12T12:34:06;11;10;
73973;PMS5003;62336;-26.094;27.994;2023-03-12T12:36:25;11;9;
73973;PMS5003;62336;-26.094;27.994;2023-03-12T12:38:51;10;10;
73973;PMS5003;62336;-26.094;27.994;2023-03-12T12:41:16;11;11;
73973;PMS5003;62336;-26.094;27.994;2023-03-12T12:43:41;9;8;
73973;PMS5003;62336;-26.094;27.994;2023-03-12T12:46:07;10;9;
73973;PMS5003;62336;-26.094;27.994;2023-03-12T12:48:32;13;13;
73973;PMS5003;62336;-26.094;27.994;2023-03-12T12:50:55;12;12;
73973;PMS5003;62336;-26.094;27.994;2023-03-12T12:53:22;12;11;
73973;PMS5003;62336;-26.094;27.994;2023-03-12T12:55:48;15;14;
73973;PMS5003;62336;-26.094;27.994;2023-03-12T12:58:12;13;12;
73973;PMS5003;62336;-26.094;27.994;2023-03-12T13:00:39;14;14;
73973;PMS5003;62336;-26.094;27.994;2023-03-12T13:03:02;11;11;
73973;PMS5003;62336;-26.094;27.994;2023-03-12T13:05:28;11;11;
73973;PMS5003;62336;-26.094;27.994;2023-03-12T13:07:52;13;12;
73973;PMS5003;62336;-26.094;27.994;2023-03-12T13:12:46;10;8;
73973;PMS5003;62336;-26.094;27.994;2023-03-12T13:17:35;7;7;
73973;PMS5003;62336;-26.094;27.994;2023-03-12T13:20:10;11;10;
73973;PMS5003;62336;-26.094;27.994;2023-03-12T13:22:30;8;8;
73973;PMS5003;62336;-26.094;27.994;2023-03-12T13:24:53;11;10;
73973;PMS5003;62336;-26.094;27.994;2023-03-12T13:27:19;12;11;
73973;PMS5003;62336;-26.094;27.994;2023-03-12T13:29:44;9;9;
73973;PMS5003;62336;-26.094;27.994;2023-03-12T13:32:35;13;13;
73973;PMS5003;62336;-26.094;27.994;2023-03-12T13:37:00;12;12;
73973;PMS5003;62336;-26.094;27.994;2023-03-12T13:39:27;16;16;
73973;PMS5003;62336;-26.094;27.994;2023-03-12T13:41:52;11;11;
73973;PMS5003;62336;-26.094;27.994;2023-03-12T13:44:27;11;10;
73973;PMS5003;62336;-26.094;27.994;2023-03-12T13:46:43;12;12;
73973;PMS5003;62336;-26.094;27.994;2023-03-12T13:49:10;15;13;
73973;PMS5003;62336;-26.094;27.994;2023-03-12T13:51:33;15;15;
73973;PMS5003;62336;-26.094;27.994;2023-03-12T13:53:59;14;12;
73973;PMS5003;62336;-26.094;27.994;2023-03-12T13:56:25;17;17;
73973;PMS5003;62336;-26.094;27.994;2023-03-12T13:58:53;19;18;
73973;PMS5003;62336;-26.094;27.994;2023-03-12T14:01:23;15;15;
73973;PMS5003;62336;-26.094;27.994;2023-03-12T14:03:42;16;15;
73973;PMS5003;62336;-26.094;27.994;2023-03-12T14:06:09;16;16;
73973;PMS5003;62336;-26.094;27.994;2023-03-12T14:08:37;12;12;
73973;PMS5003;62336;-26.094;27.994;2023-03-12T14:11:02;14;14;
73973;PMS5003;62336;-26.094;27.994;2023-03-12T14:13:27;13;13;
73973;PMS5003;62336;-26.094;27.994;2023-03-12T14:15:50;18;18;
73973;PMS5003;62336;-26.094;27.994;2023-03-12T14:18:17;19;18;
73973;PMS5003;62336;-26.094;27.994;2023-03-12T14:20:41;21;20;
73973;PMS5003;62336;-26.094;27.994;2023-03-12T14:23:07;20;17;
73973;PMS5003;62336;-26.094;27.994;2023-03-12T14:25:32;17;16;
73973;PMS5003;62336;-26.094;27.994;2023-03-12T14:27:57;18;18;
73973;PMS5003;62336;-26.094;27.994;2023-03-12T14:30:23;15;15;
73973;PMS5003;62336;-26.094;27.994;2023-03-12T14:32:49;16;14;
73973;PMS5003;62336;-26.094;27.994;2023-03-12T14:35:16;13;13;
73973;PMS5003;62336;-26.094;27.994;2023-03-12T14:37:41;15;15;
73973;PMS5003;62336;-26.094;27.994;2023-03-12T14:40:07;14;14;
73973;PMS5003;62336;-26.094;27.994;2023-03-12T14:42:32;14;14;
73973;PMS5003;62336;-26.094;27.994;2023-03-12T14:44:57;11;11;
73973;PMS5003;62336;-26.094;27.994;2023-03-12T14:47:22;12;12;
73973;PMS5003;62336;-26.094;27.994;2023-03-12T14:49:48;16;16;
73973;PMS5003;62336;-26.094;27.994;2023-03-12T14:52:19;15;15;
73973;PMS5003;62336;-26.094;27.994;2023-03-12T14:54:40;15;15;
73973;PMS5003;62336;-26.094;27.994;2023-03-12T14:59:32;14;14;
73973;PMS5003;62336;-26.094;27.994;2023-03-12T15:01:58;16;16;
73973;PMS5003;62336;-26.094;27.994;2023-03-12T15:04:22;16;15;
73973;PMS5003;62336;-26.094;27.994;2023-03-12T15:06:48;17;16;
73973;PMS5003;62336;-26.094;27.994;2023-03-12T15:09:15;16;15;
73973;PMS5003;62336;-26.094;27.994;2023-03-12T15:11:39;17;15;
73973;PMS5003;62336;-26.094;27.994;2023-03-12T15:14:06;18;16;
73973;PMS5003;62336;-26.094;27.994;2023-03-12T15:16:30;13;13;
73973;PMS5003;62336;-26.094;27.994;2023-03-12T15:18:55;14;14;
73973;PMS5003;62336;-26.094;27.994;2023-03-12T15:21:21;15;13;
73973;PMS5003;62336;-26.094;27.994;2023-03-12T15:23:47;14;14;
73973;PMS5003;62336;-26.094;27.994;2023-03-12T15:26:14;13;12;
73973;PMS5003;62336;-26.094;27.994;2023-03-12T15:28:39;13;13;
73973;PMS5003;62336;-26.094;27.994;2023-03-12T15:31:05;14;14;
73973;PMS5003;62336;-26.094;27.994;2023-03-12T15:33:29;17;16;
73973;PMS5003;62336;-26.094;27.994;2023-03-12T15:35:57;22;21;
73973;PMS5003;62336;-26.094;27.994;2023-03-12T15:38:21;23;23;
73973;PMS5003;62336;-26.094;27.994;2023-03-12T15:40:48;26;22;
73973;PMS5003;62336;-26.094;27.994;2023-03-12T15:43:14;19;19;
73973;PMS5003;62336;-26.094;27.994;2023-03-12T15:45:37;26;23;
73973;PMS5003;62336;-26.094;27.994;2023-03-12T15:48:02;18;18;
73973;PMS5003;62336;-26.094;27.994;2023-03-12T15:50:29;25;21;
73973;PMS5003;62336;-26.094;27.994;2023-03-12T15:52:57;19;17;
73973;PMS5003;62336;-26.094;27.994;2023-03-12T15:55:21;14;14;
73973;PMS5003;62336;-26.094;27.994;2023-03-12T15:57:45;14;13;
73973;PMS5003;62336;-26.094;27.994;2023-03-12T16:00:15;14;14;
73973;PMS5003;62336;-26.094;27.994;2023-03-12T16:02:37;14;13;
73973;PMS5003;62336;-26.094;27.994;2023-03-12T16:05:02;14;14;
73973;PMS5003;62336;-26.094;27.994;2023-03-12T16:07:28;15;15;